Time;durP1;ratioP1;P1;durP2;ratioP2;P2;SDS_P1;SDS_P2;PMS_P1;PMS_P2;Temp;Humidity;BMP_temperature;BMP_pressure;BME280_temperature;BME280_humidity;BME280_pressure;Samples;Min_cycle;Max_cycle;Signal;HPM_P1;HPM_P2
2022/03/28 00:00:17;;;;;;;20.40;4.93;;;;;;;;;;5042582;28;20182;-70
2022/03/28 00:02:44;;;;;;;21.97;5.20;;;;;;;;;;5044298;28;20605;-70
2022/03/28 00:05:09;;;;;;;20.67;6.77;;;;;;;;;;5051098;28;20249;-70
2022/03/28 00:07:34;;;;;;;18.20;6.00;;;;;;;;;;5047329;28;20297;-71
2022/03/28 00:09:59;;;;;;;16.97;4.60;;;;;;;;;;5049242;28;20174;-71
2022/03/28 00:12:25;;;;;;;18.60;6.43;;;;;;;;;;5040689;28;20225;-71
2022/03/28 00:14:50;;;;;;;18.03;4.03;;;;;;;;;;5049408;28;20651;-71
2022/03/28 00:17:15;;;;;;;19.43;4.67;;;;;;;;;;5049636;28;20212;-71
2022/03/28 00:19:40;;;;;;;24.60;6.80;;;;;;;;;;5049836;28;20185;-71
2022/03/28 00:22:06;;;;;;;17.73;4.63;;;;;;;;;;5046443;28;20189;-71
2022/03/28 00:24:31;;;;;;;25.90;6.07;;;;;;;;;;5047116;28;20543;-72
2022/03/28 00:26:56;;;;;;;12.77;4.70;;;;;;;;;;5053371;28;20181;-72
2022/03/28 00:29:21;;;;;;;19.27;5.13;;;;;;;;;;5049311;28;20178;-72
2022/03/28 00:31:47;;;;;;;14.40;4.60;;;;;;;;;;5048651;28;20308;-72
2022/03/28 00:34:12;;;;;;;21.20;5.50;;;;;;;;;;5046153;28;20645;-70
2022/03/28 00:36:37;;;;;;;28.23;5.07;;;;;;;;;;5049248;28;20568;-72
2022/03/28 00:39:03;;;;;;;18.97;5.27;;;;;;;;;;5048935;28;20773;-71
2022/03/28 00:41:28;;;;;;;21.37;5.07;;;;;;;;;;5049923;28;20267;-71
2022/03/28 00:43:57;;;;;;;22.30;6.43;;;;;;;;;;5048836;28;20174;-70
2022/03/28 00:46:22;;;;;;;20.97;5.30;;;;;;;;;;5050047;28;20201;-71
2022/03/28 00:48:48;;;;;;;21.03;6.00;;;;;;;;;;5042334;28;20687;-71
2022/03/28 00:51:13;;;;;;;20.17;5.23;;;;;;;;;;5048384;28;20200;-71
2022/03/28 00:53:39;;;;;;;18.20;4.93;;;;;;;;;;5049037;28;20189;-71
2022/03/28 00:56:05;;;;;;;15.03;5.43;;;;;;;;;;5047936;28;20174;-71
2022/03/28 00:58:30;;;;;;;18.07;4.53;;;;;;;;;;5047538;28;20220;-71
2022/03/28 01:00:55;;;;;;;28.60;6.43;;;;;;;;;;5048168;28;20174;-71
2022/03/28 01:03:21;;;;;;;24.67;4.90;;;;;;;;;;5046446;28;20544;-71
2022/03/28 01:05:46;;;;;;;17.03;4.53;;;;;;;;;;5047046;28;20711;-71
2022/03/28 01:08:13;;;;;;;18.67;5.37;;;;;;;;;;5039885;28;20201;-70
2022/03/28 01:10:39;;;;;;;22.20;6.53;;;;;;;;;;5046880;28;20204;-71
2022/03/28 01:13:04;;;;;;;18.37;5.70;;;;;;;;;;5047925;28;20663;-71
2022/03/28 01:15:29;;;;;;;17.77;4.47;;;;;;;;;;5049731;28;20295;-71
2022/03/28 01:18:08;;;;;;;13.67;4.57;;;;;;;;;;5047746;28;20701;-71
2022/03/28 01:20:34;;;;;;;18.17;5.30;;;;;;;;;;5051332;28;20648;-71
2022/03/28 01:23:00;;;;;;;24.50;6.10;;;;;;;;;;5047484;28;20213;-71
2022/03/28 01:25:26;;;;;;;18.60;6.33;;;;;;;;;;5049098;28;20174;-71
2022/03/28 01:27:55;;;;;;;17.40;4.90;;;;;;;;;;5047372;28;20698;-70
2022/03/28 01:30:21;;;;;;;16.80;5.87;;;;;;;;;;5048565;28;20651;-71
2022/03/28 01:32:47;;;;;;;20.60;4.87;;;;;;;;;;5047935;28;20177;-71
2022/03/28 01:35:12;;;;;;;27.03;6.33;;;;;;;;;;5048115;28;20189;-70
2022/03/28 01:37:37;;;;;;;21.10;5.50;;;;;;;;;;5047521;28;20213;-70
2022/03/28 01:40:04;;;;;;;17.70;4.63;;;;;;;;;;5044151;28;20178;-70
2022/03/28 01:42:29;;;;;;;14.13;4.70;;;;;;;;;;5033061;28;20671;-71
2022/03/28 01:44:55;;;;;;;19.33;5.37;;;;;;;;;;5037972;28;20185;-71
2022/03/28 01:47:20;;;;;;;16.80;4.10;;;;;;;;;;5049119;28;20263;-71
2022/03/28 01:49:45;;;;;;;13.63;5.60;;;;;;;;;;5046427;28;20178;-71
2022/03/28 01:52:10;;;;;;;19.50;5.13;;;;;;;;;;5048263;28;20235;-71
2022/03/28 01:54:35;;;;;;;15.13;4.63;;;;;;;;;;5049108;28;20644;-71
2022/03/28 01:57:00;;;;;;;23.33;5.80;;;;;;;;;;5045056;28;20180;-70
2022/03/28 01:59:26;;;;;;;22.20;5.07;;;;;;;;;;5043028;28;20178;-71
2022/03/28 02:01:51;;;;;;;20.53;5.10;;;;;;;;;;5047265;28;20722;-71
2022/03/28 02:04:16;;;;;;;21.50;6.70;;;;;;;;;;5047380;28;20174;-71
2022/03/28 02:06:41;;;;;;;24.53;6.20;;;;;;;;;;5045803;28;20304;-70
2022/03/28 02:09:06;;;;;;;16.70;4.67;;;;;;;;;;5046557;28;20202;-71
2022/03/28 02:11:34;;;;;;;26.23;6.50;;;;;;;;;;5049767;28;20261;-70
2022/03/28 02:13:59;;;;;;;21.67;5.67;;;;;;;;;;5055076;28;20180;-70
2022/03/28 02:16:25;;;;;;;24.00;5.40;;;;;;;;;;5050425;28;20174;-70
2022/03/28 02:18:50;;;;;;;24.40;6.60;;;;;;;;;;5049938;28;20203;-70
2022/03/28 02:21:15;;;;;;;24.00;7.30;;;;;;;;;;5052885;28;20201;-72
2022/03/28 02:23:40;;;;;;;21.70;5.20;;;;;;;;;;5050412;28;20177;-70
2022/03/28 02:26:06;;;;;;;20.90;5.13;;;;;;;;;;5052147;28;20615;-70
2022/03/28 02:28:31;;;;;;;16.90;5.10;;;;;;;;;;5051864;28;20319;-70
2022/03/28 02:30:56;;;;;;;17.70;5.93;;;;;;;;;;5050618;28;20252;-70
2022/03/28 02:33:22;;;;;;;23.30;6.43;;;;;;;;;;5050937;28;20537;-70
2022/03/28 02:35:47;;;;;;;19.80;6.00;;;;;;;;;;5049890;28;20170;-70
2022/03/28 02:38:12;;;;;;;17.23;5.00;;;;;;;;;;5048797;28;20211;-69
2022/03/28 02:40:38;;;;;;;24.30;6.00;;;;;;;;;;5054426;28;20169;-70
2022/03/28 02:43:03;;;;;;;18.80;4.87;;;;;;;;;;5051771;28;20417;-70
2022/03/28 02:45:31;;;;;;;18.70;6.33;;;;;;;;;;5050311;28;20174;-71
2022/03/28 02:47:56;;;;;;;18.33;5.43;;;;;;;;;;5042492;28;20582;-70
2022/03/28 02:50:22;;;;;;;22.83;6.20;;;;;;;;;;5050824;28;20178;-70
2022/03/28 02:52:47;;;;;;;20.23;5.87;;;;;;;;;;5046736;28;20166;-72
2022/03/28 02:55:12;;;;;;;21.87;6.17;;;;;;;;;;5049514;28;20204;-70
2022/03/28 02:57:37;;;;;;;14.63;6.53;;;;;;;;;;5046352;28;20189;-70
2022/03/28 03:00:07;;;;;;;27.00;6.90;;;;;;;;;;5050683;28;20603;-70
2022/03/28 03:02:33;;;;;;;15.47;5.43;;;;;;;;;;5048301;28;20206;-72
2022/03/28 03:04:58;;;;;;;20.67;5.93;;;;;;;;;;5048607;28;20548;-70
2022/03/28 03:07:23;;;;;;;22.23;7.23;;;;;;;;;;5042897;28;20217;-69
2022/03/28 03:09:48;;;;;;;20.97;6.67;;;;;;;;;;5047304;28;20303;-70
2022/03/28 03:12:13;;;;;;;25.23;6.17;;;;;;;;;;5044535;28;20227;-70
2022/03/28 03:14:39;;;;;;;18.80;6.30;;;;;;;;;;5051918;28;20205;-70
2022/03/28 03:17:04;;;;;;;25.17;6.73;;;;;;;;;;5049051;28;20205;-70
2022/03/28 03:19:29;;;;;;;18.47;6.63;;;;;;;;;;5049130;28;20622;-71
2022/03/28 03:21:55;;;;;;;20.27;6.93;;;;;;;;;;5047642;28;20191;-71
2022/03/28 03:24:20;;;;;;;17.47;5.97;;;;;;;;;;5049272;28;20170;-71
2022/03/28 03:26:45;;;;;;;18.20;6.70;;;;;;;;;;5050506;28;20207;-70
2022/03/28 03:29:11;;;;;;;18.17;6.10;;;;;;;;;;5049941;28;20202;-70
2022/03/28 03:31:36;;;;;;;18.93;7.07;;;;;;;;;;5051852;28;20178;-70
2022/03/28 03:34:02;;;;;;;21.47;6.77;;;;;;;;;;5049473;28;20201;-70
2022/03/28 03:36:27;;;;;;;17.73;7.00;;;;;;;;;;5050775;28;20178;-70
2022/03/28 03:38:52;;;;;;;21.83;7.37;;;;;;;;;;5046365;28;20315;-71
2022/03/28 03:41:18;;;;;;;19.63;6.70;;;;;;;;;;5048972;28;20702;-72
2022/03/28 03:43:44;;;;;;;25.63;6.97;;;;;;;;;;5050309;28;20463;-70
2022/03/28 03:46:09;;;;;;;22.97;6.87;;;;;;;;;;5048693;28;20174;-70
2022/03/28 03:48:34;;;;;;;17.33;6.77;;;;;;;;;;5040509;28;20212;-70
2022/03/28 03:50:59;;;;;;;24.90;7.40;;;;;;;;;;5049306;28;20186;-70
2022/03/28 03:53:25;;;;;;;17.70;7.17;;;;;;;;;;5050637;28;20186;-70
2022/03/28 03:55:50;;;;;;;21.03;7.67;;;;;;;;;;5050002;28;20184;-71
2022/03/28 03:58:15;;;;;;;22.70;8.50;;;;;;;;;;5050479;28;20228;-71
2022/03/28 04:00:40;;;;;;;22.17;8.20;;;;;;;;;;5047318;28;20253;-70
2022/03/28 04:03:05;;;;;;;25.90;8.93;;;;;;;;;;5047053;28;20244;-70
2022/03/28 04:05:32;;;;;;;29.90;10.67;;;;;;;;;;5050962;28;20205;-70
2022/03/28 04:07:59;;;;;;;19.43;8.17;;;;;;;;;;5048066;28;20284;-70
2022/03/28 04:10:24;;;;;;;19.13;8.27;;;;;;;;;;5049558;28;20201;-70
2022/03/28 04:12:49;;;;;;;19.93;8.30;;;;;;;;;;5048644;28;20213;-70
2022/03/28 04:15:14;;;;;;;22.40;8.67;;;;;;;;;;5053247;28;20647;-71
2022/03/28 04:17:40;;;;;;;22.37;8.90;;;;;;;;;;5049655;28;20288;-69
2022/03/28 04:20:06;;;;;;;18.60;7.77;;;;;;;;;;5050702;28;20181;-70
2022/03/28 04:22:31;;;;;;;23.53;9.33;;;;;;;;;;5048990;28;20201;-70
2022/03/28 04:24:56;;;;;;;23.30;9.10;;;;;;;;;;5050816;28;20170;-70
2022/03/28 04:27:21;;;;;;;22.13;9.53;;;;;;;;;;5048354;28;20209;-70
2022/03/28 04:29:46;;;;;;;24.33;9.27;;;;;;;;;;5045834;28;20182;-70
2022/03/28 04:32:12;;;;;;;25.33;11.13;;;;;;;;;;5048705;28;20222;-71
2022/03/28 04:34:37;;;;;;;21.00;9.07;;;;;;;;;;5050053;28;20165;-70
2022/03/28 04:37:02;;;;;;;19.03;9.43;;;;;;;;;;5048454;28;20220;-69
2022/03/28 04:39:27;;;;;;;21.23;10.80;;;;;;;;;;5049598;28;20286;-69
2022/03/28 04:41:53;;;;;;;20.67;9.20;;;;;;;;;;5044565;28;20197;-70
2022/03/28 04:44:18;;;;;;;23.07;9.47;;;;;;;;;;5044672;28;20597;-69
2022/03/28 04:46:43;;;;;;;21.40;9.13;;;;;;;;;;5045783;28;20281;-71
2022/03/28 04:49:13;;;;;;;27.60;10.27;;;;;;;;;;5035866;28;20312;-70
2022/03/28 04:51:38;;;;;;;26.97;11.87;;;;;;;;;;5023809;28;20186;-70
2022/03/28 04:54:03;;;;;;;25.40;9.67;;;;;;;;;;5050125;28;20174;-70
2022/03/28 04:56:28;;;;;;;18.83;9.67;;;;;;;;;;5051236;28;20256;-70
2022/03/28 04:58:54;;;;;;;16.33;8.33;;;;;;;;;;5050684;28;20331;-70
2022/03/28 05:01:19;;;;;;;19.00;9.30;;;;;;;;;;5049470;28;20327;-70
2022/03/28 05:03:44;;;;;;;22.70;10.57;;;;;;;;;;5047307;28;20175;-70
2022/03/28 05:06:09;;;;;;;27.27;11.20;;;;;;;;;;5048535;28;20262;-70
2022/03/28 05:08:35;;;;;;;19.10;8.57;;;;;;;;;;5056526;28;20208;-70
2022/03/28 05:11:01;;;;;;;17.63;8.70;;;;;;;;;;5050693;28;20197;-71
2022/03/28 05:13:27;;;;;;;16.97;8.17;;;;;;;;;;5044857;28;20206;-70
2022/03/28 05:15:52;;;;;;;18.07;8.83;;;;;;;;;;5047645;28;20173;-71
2022/03/28 05:18:18;;;;;;;19.27;9.47;;;;;;;;;;5053664;28;20276;-70
2022/03/28 05:20:43;;;;;;;18.90;9.53;;;;;;;;;;5049767;28;20174;-70
2022/03/28 05:23:08;;;;;;;24.47;11.30;;;;;;;;;;5049760;28;20202;-70
2022/03/28 05:25:33;;;;;;;22.60;9.97;;;;;;;;;;5047570;28;20220;-70
2022/03/28 05:27:58;;;;;;;22.67;10.03;;;;;;;;;;5053387;28;20204;-70
2022/03/28 05:30:24;;;;;;;25.87;11.30;;;;;;;;;;5048305;28;20185;-71
2022/03/28 05:32:49;;;;;;;24.60;10.50;;;;;;;;;;5048093;28;20182;-71
2022/03/28 05:35:16;;;;;;;32.73;12.23;;;;;;;;;;5049166;28;20239;-70
2022/03/28 05:37:41;;;;;;;22.13;10.93;;;;;;;;;;5047698;28;20248;-71
2022/03/28 05:40:08;;;;;;;23.90;11.00;;;;;;;;;;5048838;28;20189;-70
2022/03/28 05:42:34;;;;;;;18.87;9.83;;;;;;;;;;5048905;28;20201;-70
2022/03/28 05:45:00;;;;;;;28.57;10.73;;;;;;;;;;5050407;28;20198;-70
2022/03/28 05:47:25;;;;;;;21.67;11.47;;;;;;;;;;5047882;28;20603;-71
2022/03/28 05:49:50;;;;;;;23.40;10.03;;;;;;;;;;5054303;28;20170;-70
2022/03/28 05:52:16;;;;;;;18.27;10.43;;;;;;;;;;5058926;28;20188;-71
2022/03/28 05:54:41;;;;;;;17.37;9.30;;;;;;;;;;5041156;28;20174;-70
2022/03/28 05:57:06;;;;;;;23.53;10.87;;;;;;;;;;5053558;28;20197;-70
2022/03/28 05:59:32;;;;;;;22.43;9.90;;;;;;;;;;5053762;28;20554;-73
2022/03/28 06:01:57;;;;;;;23.23;10.90;;;;;;;;;;5053495;28;20213;-70
2022/03/28 06:04:22;;;;;;;17.03;10.20;;;;;;;;;;5053184;28;20253;-70
2022/03/28 06:06:47;;;;;;;16.90;9.57;;;;;;;;;;5053209;28;20273;-70
2022/03/28 06:09:13;;;;;;;19.97;9.93;;;;;;;;;;5052403;28;20280;-71
2022/03/28 06:11:38;;;;;;;19.37;9.50;;;;;;;;;;5050809;28;20182;-71
2022/03/28 06:14:04;;;;;;;14.70;9.03;;;;;;;;;;5052320;28;20273;-70
2022/03/28 06:16:29;;;;;;;22.23;9.37;;;;;;;;;;5050782;28;20235;-70
2022/03/28 06:18:54;;;;;;;17.80;9.20;;;;;;;;;;5051355;28;20206;-71
2022/03/28 06:21:19;;;;;;;16.53;9.60;;;;;;;;;;5052759;28;20212;-70
2022/03/28 06:23:45;;;;;;;16.93;10.27;;;;;;;;;;5051659;28;20592;-70
2022/03/28 06:26:12;;;;;;;20.03;9.27;;;;;;;;;;5053202;28;20174;-70
2022/03/28 06:28:41;;;;;;;16.87;10.13;;;;;;;;;;5051435;28;20198;-70
2022/03/28 06:31:07;;;;;;;17.50;9.97;;;;;;;;;;5048692;28;20622;-71
2022/03/28 06:33:32;;;;;;;16.07;9.10;;;;;;;;;;5052945;28;20264;-71
2022/03/28 06:35:58;;;;;;;14.93;8.53;;;;;;;;;;5051820;28;20598;-70
2022/03/28 06:38:23;;;;;;;16.33;10.37;;;;;;;;;;5052090;28;20205;-70
2022/03/28 06:40:48;;;;;;;14.90;9.83;;;;;;;;;;5047736;28;20240;-71
2022/03/28 06:43:13;;;;;;;14.30;8.93;;;;;;;;;;5051976;28;20262;-70
2022/03/28 06:45:38;;;;;;;15.70;10.27;;;;;;;;;;5048644;28;20189;-70
2022/03/28 06:48:04;;;;;;;13.73;8.87;;;;;;;;;;5047815;28;20699;-70
2022/03/28 06:50:29;;;;;;;15.17;8.80;;;;;;;;;;5052698;28;20174;-70
2022/03/28 06:52:55;;;;;;;20.07;10.47;;;;;;;;;;5051788;28;20193;-70
2022/03/28 06:55:20;;;;;;;12.03;8.37;;;;;;;;;;5047296;28;20191;-69
2022/03/28 06:57:46;;;;;;;14.57;9.17;;;;;;;;;;5044763;28;20198;-70
2022/03/28 07:00:11;;;;;;;19.93;9.60;;;;;;;;;;5050989;28;20697;-70
2022/03/28 07:02:37;;;;;;;12.27;8.07;;;;;;;;;;5049691;28;20200;-70
2022/03/28 07:05:03;;;;;;;17.87;9.70;;;;;;;;;;5048563;28;20182;-69
2022/03/28 07:07:37;;;;;;;14.97;9.43;;;;;;;;;;5047843;28;20280;-70
2022/03/28 07:10:02;;;;;;;15.53;9.80;;;;;;;;;;5048320;28;20659;-70
2022/03/28 07:12:27;;;;;;;18.97;9.67;;;;;;;;;;5052224;28;20176;-71
2022/03/28 07:14:52;;;;;;;19.10;8.90;;;;;;;;;;5051090;28;20275;-69
2022/03/28 07:17:19;;;;;;;16.07;9.93;;;;;;;;;;5053803;28;20205;-71
2022/03/28 07:19:46;;;;;;;14.47;9.37;;;;;;;;;;5046507;28;20202;-71
2022/03/28 07:22:11;;;;;;;15.93;9.60;;;;;;;;;;5051966;28;20405;-71
2022/03/28 07:24:37;;;;;;;15.63;9.87;;;;;;;;;;5049603;28;20181;-71
2022/03/28 07:27:02;;;;;;;18.70;10.77;;;;;;;;;;5051151;28;20225;-70
2022/03/28 07:29:27;;;;;;;19.77;9.77;;;;;;;;;;5050104;28;20173;-70
2022/03/28 07:31:54;;;;;;;13.20;9.30;;;;;;;;;;5052175;28;20186;-71
2022/03/28 07:34:32;;;;;;;13.13;8.97;;;;;;;;;;5050335;28;20555;-71
2022/03/28 07:36:57;;;;;;;13.80;8.80;;;;;;;;;;5048324;28;20177;-70
2022/03/28 07:39:23;;;;;;;15.03;9.20;;;;;;;;;;5049770;28;20181;-71
2022/03/28 07:41:49;;;;;;;14.57;9.23;;;;;;;;;;5049516;28;20714;-72
2022/03/28 07:44:14;;;;;;;14.33;9.40;;;;;;;;;;5049300;28;20264;-70
2022/03/28 07:46:40;;;;;;;17.13;8.80;;;;;;;;;;5050767;28;20256;-71
2022/03/28 07:49:07;;;;;;;15.07;9.00;;;;;;;;;;5048629;28;20289;-70
2022/03/28 07:51:32;;;;;;;11.47;8.70;;;;;;;;;;5048293;28;20205;-70
2022/03/28 07:53:57;;;;;;;11.97;9.17;;;;;;;;;;5048702;28;20662;-70
2022/03/28 07:56:22;;;;;;;29.07;10.80;;;;;;;;;;5041150;28;20178;-70
2022/03/28 07:58:47;;;;;;;18.03;10.47;;;;;;;;;;5024970;28;20777;-70
2022/03/28 08:01:13;;;;;;;14.50;9.20;;;;;;;;;;5030627;28;20732;-70
2022/03/28 08:03:38;;;;;;;14.07;9.27;;;;;;;;;;5039159;28;20174;-70
2022/03/28 08:06:03;;;;;;;10.20;8.53;;;;;;;;;;5045959;28;20694;-70
2022/03/28 08:08:31;;;;;;;12.27;9.57;;;;;;;;;;5049592;28;20198;-70
2022/03/28 08:10:57;;;;;;;13.33;9.60;;;;;;;;;;5049926;28;20172;-71
2022/03/28 08:13:22;;;;;;;14.13;9.23;;;;;;;;;;5046758;28;20182;-70
2022/03/28 08:15:48;;;;;;;17.30;9.03;;;;;;;;;;5054458;28;20170;-70
2022/03/28 08:18:15;;;;;;;16.97;10.07;;;;;;;;;;5046269;28;20643;-72
2022/03/28 08:20:40;;;;;;;16.42;9.27;;;;;;;;;;5047847;28;20658;-70
2022/03/28 08:23:05;;;;;;;12.77;9.73;;;;;;;;;;5048611;28;20201;-71
2022/03/28 08:25:31;;;;;;;15.43;9.57;;;;;;;;;;5047840;28;20182;-69
2022/03/28 08:27:56;;;;;;;14.68;10.10;;;;;;;;;;5045849;28;20206;-71
2022/03/28 08:30:21;;;;;;;16.17;9.70;;;;;;;;;;5047475;28;20239;-71
2022/03/28 08:32:47;;;;;;;14.35;9.90;;;;;;;;;;5047162;28;20263;-71
2022/03/28 08:35:12;;;;;;;17.25;10.85;;;;;;;;;;5045538;28;20250;-71
2022/03/28 08:37:38;;;;;;;15.68;10.07;;;;;;;;;;5048941;28;20659;-68
2022/03/28 08:40:04;;;;;;;14.73;9.60;;;;;;;;;;5044880;28;20261;-71
2022/03/28 08:42:29;;;;;;;13.02;9.07;;;;;;;;;;5050101;28;20272;-70
2022/03/28 08:44:54;;;;;;;21.02;10.13;;;;;;;;;;5048626;28;20174;-70
2022/03/28 08:47:22;;;;;;;14.93;9.63;;;;;;;;;;5047273;28;20216;-70
2022/03/28 08:49:47;;;;;;;16.23;10.07;;;;;;;;;;5045444;28;20264;-71
2022/03/28 08:52:13;;;;;;;17.73;10.40;;;;;;;;;;5049189;28;20273;-71
2022/03/28 08:54:38;;;;;;;15.95;10.52;;;;;;;;;;5050300;28;20178;-71
2022/03/28 08:57:04;;;;;;;13.05;10.07;;;;;;;;;;5049083;28;20255;-71
2022/03/28 08:59:29;;;;;;;14.35;9.98;;;;;;;;;;5049502;28;20234;-71
2022/03/28 09:01:54;;;;;;;13.57;10.03;;;;;;;;;;5045260;28;20198;-70
2022/03/28 09:04:19;;;;;;;13.98;9.98;;;;;;;;;;5043444;28;20429;-70
2022/03/28 09:06:45;;;;;;;12.32;9.85;;;;;;;;;;5047948;28;20208;-71
2022/03/28 09:09:16;;;;;;;13.32;9.80;;;;;;;;;;5049248;28;20564;-69
2022/03/28 09:11:45;;;;;;;12.95;9.88;;;;;;;;;;5049151;28;20577;-70
2022/03/28 09:14:12;;;;;;;17.27;10.38;;;;;;;;;;5048808;28;20550;-70
2022/03/28 09:16:37;;;;;;;16.45;11.25;;;;;;;;;;5049743;28;20174;-69
2022/03/28 09:19:09;;;;;;;14.52;9.70;;;;;;;;;;5047413;28;20209;-69
2022/03/28 09:21:34;;;;;;;13.05;9.48;;;;;;;;;;5053376;28;20193;-69
2022/03/28 09:24:02;;;;;;;12.88;9.48;;;;;;;;;;5055262;28;20522;-70
2022/03/28 09:26:27;;;;;;;13.43;8.95;;;;;;;;;;5056356;28;20566;-70
2022/03/28 09:28:58;;;;;;;21.17;9.57;;;;;;;;;;5058630;28;20197;-69
2022/03/28 09:31:28;;;;;;;12.43;9.93;;;;;;;;;;5051308;28;20446;-70
2022/03/28 09:33:57;;;;;;;13.57;10.18;;;;;;;;;;5051395;28;20178;-69
2022/03/28 09:36:33;;;;;;;18.83;11.07;;;;;;;;;;5053537;28;20218;-70
2022/03/28 09:38:58;;;;;;;16.88;10.63;;;;;;;;;;5048623;28;20213;-70
2022/03/28 09:41:24;;;;;;;16.08;12.25;;;;;;;;;;5052422;28;20204;-69
2022/03/28 09:43:53;;;;;;;13.32;9.98;;;;;;;;;;5053745;28;20612;-70
2022/03/28 09:46:25;;;;;;;14.90;10.30;;;;;;;;;;5048655;28;20173;-70
2022/03/28 09:48:51;;;;;;;12.98;10.77;;;;;;;;;;5051952;28;20682;-70
2022/03/28 09:51:18;;;;;;;14.77;9.93;;;;;;;;;;5053135;28;20181;-71
2022/03/28 09:53:43;;;;;;;16.40;11.00;;;;;;;;;;5045459;28;20185;-69
2022/03/28 09:56:09;;;;;;;18.47;9.57;;;;;;;;;;5051864;28;20177;-70
2022/03/28 09:58:45;;;;;;;18.70;11.35;;;;;;;;;;5053387;28;20451;-69
2022/03/28 10:01:43;;;;;;;16.58;10.45;;;;;;;;;;5049827;28;20180;-69
2022/03/28 10:04:09;;;;;;;14.05;10.48;;;;;;;;;;5011970;28;20955;-69
2022/03/28 10:06:35;;;;;;;12.50;10.45;;;;;;;;;;5042736;28;20177;-70
2022/03/28 10:09:00;;;;;;;17.10;11.05;;;;;;;;;;5050051;28;20224;-70
2022/03/28 10:11:26;;;;;;;12.75;10.13;;;;;;;;;;5052079;28;20627;-70
2022/03/28 10:13:52;;;;;;;17.00;11.00;;;;;;;;;;5050721;28;20596;-68
2022/03/28 10:16:17;;;;;;;15.32;10.40;;;;;;;;;;5051752;28;20182;-68
2022/03/28 10:18:45;;;;;;;15.85;11.88;;;;;;;;;;5044832;28;20686;-68
2022/03/28 10:21:15;;;;;;;15.70;11.20;;;;;;;;;;5052271;28;20184;-68
2022/03/28 10:23:43;;;;;;;16.30;9.75;;;;;;;;;;5046774;28;20184;-70
2022/03/28 10:26:09;;;;;;;14.48;10.65;;;;;;;;;;5052713;28;20213;-68
2022/03/28 10:28:35;;;;;;;16.23;10.30;;;;;;;;;;5046177;28;20202;-68
2022/03/28 10:31:07;;;;;;;16.10;10.07;;;;;;;;;;5049754;28;20923;-68
2022/03/28 10:33:32;;;;;;;21.55;10.70;;;;;;;;;;5047991;28;20272;-69
2022/03/28 10:35:58;;;;;;;16.30;10.10;;;;;;;;;;5051754;28;20699;-69
2022/03/28 10:38:24;;;;;;;15.93;9.82;;;;;;;;;;5045507;28;20451;-69
2022/03/28 10:40:55;;;;;;;17.45;10.15;;;;;;;;;;5050829;28;20560;-68
2022/03/28 10:43:22;;;;;;;14.68;9.80;;;;;;;;;;5051946;28;20248;-69
2022/03/28 10:45:55;;;;;;;14.63;10.63;;;;;;;;;;5050947;28;20174;-69
2022/03/28 10:48:39;;;;;;;13.25;9.05;;;;;;;;;;5052469;28;20263;-68
2022/03/28 10:51:12;;;;;;;14.55;10.77;;;;;;;;;;5051475;28;20737;-69
2022/03/28 10:53:41;;;;;;;15.52;10.13;;;;;;;;;;5050275;28;20181;-69
2022/03/28 10:56:14;;;;;;;14.88;9.90;;;;;;;;;;5051271;28;20186;-68
2022/03/28 10:58:41;;;;;;;16.77;9.75;;;;;;;;;;5053270;28;20186;-69
2022/03/28 11:01:11;;;;;;;16.10;10.40;;;;;;;;;;5049207;28;20177;-68
2022/03/28 11:03:54;;;;;;;14.05;9.70;;;;;;;;;;5052275;28;20248;-69
2022/03/28 11:06:40;;;;;;;17.27;11.68;;;;;;;;;;5049762;28;20678;-69
2022/03/28 11:09:05;;;;;;;14.80;10.70;;;;;;;;;;5050988;28;20210;-68
2022/03/28 11:11:32;;;;;;;16.30;10.38;;;;;;;;;;5045542;28;20205;-69
2022/03/28 11:14:18;;;;;;;18.83;11.70;;;;;;;;;;5049698;28;20178;-68
2022/03/28 11:16:44;;;;;;;13.63;10.68;;;;;;;;;;5043584;28;20332;-69
2022/03/28 11:19:19;;;;;;;15.50;10.05;;;;;;;;;;5047802;28;20619;-69
2022/03/28 11:22:05;;;;;;;17.05;10.82;;;;;;;;;;5048788;28;20200;-68
2022/03/28 11:24:45;;;;;;;18.92;10.77;;;;;;;;;;5048498;28;20181;-69
2022/03/28 11:27:11;;;;;;;12.82;9.32;;;;;;;;;;5049654;28;20205;-68
2022/03/28 11:29:36;;;;;;;11.82;9.80;;;;;;;;;;5056350;28;20268;-69
2022/03/28 11:32:08;;;;;;;17.58;11.40;;;;;;;;;;5050539;28;20289;-68
2022/03/28 11:34:33;;;;;;;14.90;8.88;;;;;;;;;;5052299;28;20185;-68
2022/03/28 11:37:00;;;;;;;14.38;9.80;;;;;;;;;;5048777;28;20182;-69
2022/03/28 11:39:27;;;;;;;12.25;9.70;;;;;;;;;;5047026;28;20184;-69
2022/03/28 11:41:53;;;;;;;14.13;9.93;;;;;;;;;;5050209;28;20253;-69
2022/03/28 11:44:18;;;;;;;12.45;9.00;;;;;;;;;;5048432;28;20170;-68
2022/03/28 11:46:52;;;;;;;14.13;8.80;;;;;;;;;;5050269;28;20222;-69
2022/03/28 11:49:17;;;;;;;13.52;9.68;;;;;;;;;;5051940;28;20417;-68
2022/03/28 11:51:44;;;;;;;12.83;9.30;;;;;;;;;;5049528;28;20178;-68
2022/03/28 11:54:11;;;;;;;12.77;9.25;;;;;;;;;;5049395;28;20889;-69
2022/03/28 11:59:21;;;;;;;14.80;9.27;;;;;;;;;;5047546;28;20193;-68
2022/03/28 12:01:48;;;;;;;13.67;10.10;;;;;;;;;;5050074;28;20444;-68
2022/03/28 12:04:14;;;;;;;15.60;10.02;;;;;;;;;;5045394;28;20506;-69
2022/03/28 12:06:39;;;;;;;12.52;9.20;;;;;;;;;;5039071;28;20279;-69
2022/03/28 12:09:07;;;;;;;10.80;8.32;;;;;;;;;;5026229;28;20276;-68
2022/03/28 12:11:35;;;;;;;14.88;10.30;;;;;;;;;;5050665;28;20228;-69
2022/03/28 12:14:00;;;;;;;15.30;8.75;;;;;;;;;;5047834;28;20674;-68
2022/03/28 12:16:25;;;;;;;16.60;9.05;;;;;;;;;;5053896;28;20273;-68
2022/03/28 12:18:58;;;;;;;12.40;9.05;;;;;;;;;;5047785;28;20194;-68
2022/03/28 12:21:25;;;;;;;13.50;8.60;;;;;;;;;;5049175;28;20268;-68
2022/03/28 12:23:50;;;;;;;12.75;8.55;;;;;;;;;;5049915;28;20178;-69
2022/03/28 12:26:15;;;;;;;12.53;8.03;;;;;;;;;;5048552;28;20218;-68
2022/03/28 12:28:45;;;;;;;13.33;8.27;;;;;;;;;;5049887;28;20447;-69
2022/03/28 12:31:10;;;;;;;13.82;8.27;;;;;;;;;;5045986;28;20423;-69
2022/03/28 12:33:38;;;;;;;16.13;8.95;;;;;;;;;;5048151;28;20556;-69
2022/03/28 12:36:05;;;;;;;16.23;8.98;;;;;;;;;;5048028;28;20269;-68
2022/03/28 12:38:34;;;;;;;14.40;7.00;;;;;;;;;;5046998;28;20255;-68
2022/03/28 12:41:02;;;;;;;15.15;8.00;;;;;;;;;;5047692;28;20173;-69
2022/03/28 12:43:28;;;;;;;15.52;7.55;;;;;;;;;;5046639;28;20201;-67
2022/03/28 12:45:56;;;;;;;10.35;7.40;;;;;;;;;;5049973;28;20231;-68
2022/03/28 12:48:22;;;;;;;15.38;7.55;;;;;;;;;;5052379;28;20289;-69
2022/03/28 12:50:55;;;;;;;12.10;7.63;;;;;;;;;;5050484;28;20260;-69
2022/03/28 12:53:22;;;;;;;13.02;6.82;;;;;;;;;;5050363;28;20216;-69
2022/03/28 12:55:48;;;;;;;12.93;7.20;;;;;;;;;;5049846;28;20595;-69
2022/03/28 12:58:13;;;;;;;12.68;6.72;;;;;;;;;;5049878;28;20236;-68
2022/03/28 13:00:40;;;;;;;12.88;7.43;;;;;;;;;;5049829;28;20169;-68
2022/03/28 13:03:05;;;;;;;15.45;8.00;;;;;;;;;;5049549;28;20197;-69
2022/03/28 13:05:31;;;;;;;14.10;6.40;;;;;;;;;;5046840;28;20273;-68
2022/03/28 13:08:23;;;;;;;12.88;6.60;;;;;;;;;;5052500;28;20255;-68
2022/03/28 13:10:48;;;;;;;13.68;6.07;;;;;;;;;;5039483;28;20718;-67
2022/03/28 13:13:13;;;;;;;13.63;6.05;;;;;;;;;;5047395;28;20276;-68
2022/03/28 13:15:41;;;;;;;14.07;6.43;;;;;;;;;;5044099;28;20180;-68
2022/03/28 13:18:11;;;;;;;17.63;7.53;;;;;;;;;;5045695;28;20201;-68
2022/03/28 13:20:38;;;;;;;13.38;5.22;;;;;;;;;;5042158;28;20198;-68
2022/03/28 13:23:04;;;;;;;16.17;6.05;;;;;;;;;;5045696;28;20679;-68
2022/03/28 13:25:40;;;;;;;16.80;6.95;;;;;;;;;;5046582;28;20235;-68
2022/03/28 13:28:06;;;;;;;18.38;7.28;;;;;;;;;;5047128;28;20232;-68
2022/03/28 13:30:32;;;;;;;14.00;7.30;;;;;;;;;;5047366;28;20201;-69
2022/03/28 13:32:58;;;;;;;12.65;6.40;;;;;;;;;;5043113;28;20205;-69
2022/03/28 13:35:24;;;;;;;14.20;5.90;;;;;;;;;;5045791;28;20232;-68
2022/03/28 13:37:53;;;;;;;14.85;5.32;;;;;;;;;;5048705;28;20224;-69
2022/03/28 13:40:18;;;;;;;14.00;6.28;;;;;;;;;;5045386;28;20186;-68
2022/03/28 13:42:43;;;;;;;14.07;6.10;;;;;;;;;;5038414;28;20205;-69
2022/03/28 13:45:09;;;;;;;19.70;5.57;;;;;;;;;;5029375;28;20269;-68
2022/03/28 13:47:34;;;;;;;13.70;6.57;;;;;;;;;;5048339;28;20540;-69
2022/03/28 13:49:59;;;;;;;15.90;6.17;;;;;;;;;;5045847;28;20552;-68
2022/03/28 13:52:25;;;;;;;22.45;5.95;;;;;;;;;;5037895;28;20400;-69
2022/03/28 13:54:50;;;;;;;18.30;5.70;;;;;;;;;;5047848;28;20178;-69
2022/03/28 13:57:15;;;;;;;14.20;5.47;;;;;;;;;;5047775;28;20213;-68
2022/03/28 13:59:41;;;;;;;18.10;6.43;;;;;;;;;;5046202;28;20407;-69
2022/03/28 14:02:07;;;;;;;16.83;6.00;;;;;;;;;;5049426;28;20458;-69
2022/03/28 14:04:32;;;;;;;17.08;5.55;;;;;;;;;;5044318;28;20438;-69
2022/03/28 14:06:57;;;;;;;13.13;5.38;;;;;;;;;;5046477;28;20177;-69
2022/03/28 14:09:22;;;;;;;13.57;6.13;;;;;;;;;;5046095;28;20197;-68
2022/03/28 14:11:47;;;;;;;12.88;5.43;;;;;;;;;;5026825;28;20476;-69
2022/03/28 14:14:13;;;;;;;16.60;5.23;;;;;;;;;;5042920;28;20269;-69
2022/03/28 14:16:38;;;;;;;15.70;5.57;;;;;;;;;;5047332;28;20426;-68
2022/03/28 14:19:04;;;;;;;17.27;5.35;;;;;;;;;;5041476;28;20454;-68
2022/03/28 14:21:29;;;;;;;16.02;5.88;;;;;;;;;;5046813;28;20188;-68
2022/03/28 14:23:54;;;;;;;14.25;5.80;;;;;;;;;;5049750;28;20308;-69